Augusta, New York
Current Conditions -  °F | °C
As of 2:53 AM on Friday 24 Oct 2014 (Local Time) from KRME Reporting Station
Overcast Overcast  
Wind Chill:   Ceiling: 1900
Heat Index:   Visibility: 10mi
Dew Point:   Wind: 7mph
Humidity: 80%   Direction: 300°WNW
Pressure: 29.91"   Gusts: NA
Location:  42.9771°N, 75.5023°W
Report Text: KRME 240653Z AUTO 30006KT 10SM OVC019 08/05 A2991 RMK AO2 SLP128 T00830050
Loading
Personal Weather Stations






























Interactive Weather Map
Tropical Storm Tracking
New forecast layout! Learn more

10-Day Weather Forecast

Advertisements
Track Severe Weather on mobile